Time;durP1;ratioP1;P1;durP2;ratioP2;P2;SDS_P1;SDS_P2;PMS_P1;PMS_P2;Temp;Humidity;BMP_temperature;BMP_pressure;BME280_temperature;BME280_humidity;BME280_pressure;Samples;Min_cycle;Max_cycle;Signal;HPM_P1;HPM_P2
2021/06/10 00:00:34;;;;;;;7.35;5.90;;;18.20;79.10;;;;;;5052317;28;20456;-77
2021/06/10 00:03:00;;;;;;;6.57;5.47;;;18.20;79.10;;;;;;5052623;28;20025;-77
2021/06/10 00:05:26;;;;;;;8.60;6.40;;;18.20;79.20;;;;;;5052440;28;20078;-77
2021/06/10 00:07:53;;;;;;;6.40;5.80;;;18.20;79.20;;;;;;5053171;28;20051;-77
2021/06/10 00:10:21;;;;;;;8.73;6.40;;;18.20;79.30;;;;;;5052200;28;20471;-77
2021/06/10 00:12:48;;;;;;;8.07;6.50;;;18.20;79.40;;;;;;5052224;28;20025;-77
2021/06/10 00:15:18;;;;;;;8.52;6.53;;;18.20;79.60;;;;;;5050549;28;20025;-77
2021/06/10 00:17:45;;;;;;;8.02;6.00;;;18.20;79.60;;;;;;5052117;28;20017;-77
2021/06/10 00:20:12;;;;;;;8.30;6.53;;;18.10;79.70;;;;;;5051944;28;20025;-77
2021/06/10 00:22:38;;;;;;;10.00;6.60;;;18.10;79.90;;;;;;5050595;28;20055;-77
2021/06/10 00:25:06;;;;;;;11.77;7.15;;;18.10;80.00;;;;;;5052026;28;20092;-77
2021/06/10 00:27:31;;;;;;;9.68;7.32;;;18.10;80.20;;;;;;5052017;28;20024;-77
2021/06/10 00:29:57;;;;;;;16.52;13.57;;;18.10;80.40;;;;;;5051916;28;20028;-78
2021/06/10 00:32:23;;;;;;;8.52;7.60;;;18.00;80.50;;;;;;5051891;28;20028;-77
2021/06/10 00:34:48;;;;;;;10.55;8.63;;;18.00;80.70;;;;;;5052025;28;20029;-77
2021/06/10 00:37:14;;;;;;;15.50;9.60;;;18.00;80.90;;;;;;5051734;28;20071;-77
2021/06/10 00:39:41;;;;;;;11.48;9.25;;;18.00;81.20;;;;;;5050837;28;20025;-77
2021/06/10 00:42:09;;;;;;;11.40;9.13;;;17.90;81.50;;;;;;5052166;28;20476;-77
2021/06/10 00:44:35;;;;;;;10.80;9.70;;;17.90;81.70;;;;;;5050427;28;20490;-77
2021/06/10 00:47:02;;;;;;;11.75;9.40;;;17.90;81.90;;;;;;5051785;28;20025;-77
2021/06/10 00:49:27;;;;;;;12.15;9.15;;;17.90;82.00;;;;;;5051537;28;20056;-77
2021/06/10 00:51:54;;;;;;;9.60;8.70;;;17.90;82.10;;;;;;5050594;28;20025;-77
2021/06/10 00:54:21;;;;;;;10.32;9.13;;;17.90;82.30;;;;;;5051836;28;20402;-77
2021/06/10 00:56:48;;;;;;;15.75;9.02;;;17.90;82.40;;;;;;5050618;28;20021;-77
2021/06/10 00:59:15;;;;;;;10.52;9.52;;;17.90;82.70;;;;;;5052123;28;20029;-76
2021/06/10 01:01:41;;;;;;;17.33;9.70;;;17.90;82.90;;;;;;5051851;28;20025;-76
2021/06/10 01:04:06;;;;;;;11.05;9.30;;;17.90;83.00;;;;;;5052281;28;20040;-77
2021/06/10 01:06:38;;;;;;;10.90;9.82;;;17.90;83.20;;;;;;5052263;28;20033;-76
2021/06/10 01:09:12;;;;;;;28.20;20.98;;;17.90;83.30;;;;;;5052245;28;20017;-77
2021/06/10 01:12:05;;;;;;;13.00;10.80;;;17.90;83.60;;;;;;5051644;28;20048;-77
2021/06/10 01:14:48;;;;;;;23.42;16.67;;;17.90;83.70;;;;;;5051737;28;20036;-77
2021/06/10 01:17:14;;;;;;;14.40;10.98;;;17.90;83.70;;;;;;5051626;28;20018;-77
2021/06/10 01:19:40;;;;;;;12.82;11.00;;;17.90;83.90;;;;;;5051626;28;20021;-77
2021/06/10 01:22:23;;;;;;;15.95;11.38;;;17.90;84.00;;;;;;5051870;28;20017;-78
2021/06/10 01:25:14;;;;;;;12.45;10.32;;;17.90;84.30;;;;;;5051601;28;20025;-78
2021/06/10 01:27:48;;;;;;;10.70;9.70;;;17.90;84.40;;;;;;5051857;28;20036;-77
2021/06/10 01:30:42;;;;;;;11.48;10.25;;;18.00;84.50;;;;;;5051815;28;20025;-78
2021/06/10 01:33:12;;;;;;;10.63;9.63;;;18.00;84.60;;;;;;5050532;28;20487;-77
2021/06/10 01:35:44;;;;;;;14.88;10.52;;;18.10;84.50;;;;;;5051096;28;20483;-77
2021/06/10 01:38:12;;;;;;;13.23;10.32;;;18.10;84.60;;;;;;5051681;28;20024;-77
2021/06/10 01:40:39;;;;;;;12.85;10.02;;;18.10;84.50;;;;;;5051654;28;20029;-77
2021/06/10 01:43:06;;;;;;;11.57;10.15;;;18.20;84.60;;;;;;5050168;28;20071;-77
2021/06/10 01:45:33;;;;;;;12.88;10.55;;;18.20;84.70;;;;;;5051483;28;20029;-77
2021/06/10 01:47:59;;;;;;;11.40;9.85;;;18.30;84.60;;;;;;5052983;28;20024;-77
2021/06/10 01:50:26;;;;;;;15.23;9.82;;;18.30;84.60;;;;;;5054556;28;20044;-77
2021/06/10 01:52:54;;;;;;;11.43;10.23;;;18.30;84.60;;;;;;5054848;28;20070;-77
2021/06/10 01:55:23;;;;;;;11.95;10.20;;;18.30;84.60;;;;;;5054643;28;20028;-77
2021/06/10 01:57:49;;;;;;;13.85;10.75;;;18.40;84.60;;;;;;5054577;28;20465;-78
2021/06/10 02:00:16;;;;;;;13.25;10.45;;;18.40;84.50;;;;;;5054556;28;20057;-78
2021/06/10 02:02:44;;;;;;;15.43;11.15;;;18.40;84.50;;;;;;5053199;28;20021;-77
2021/06/10 02:05:13;;;;;;;12.98;11.27;;;18.40;84.40;;;;;;5054553;28;20036;-77
2021/06/10 02:07:40;;;;;;;17.27;11.05;;;18.50;84.40;;;;;;5054519;28;20574;-77
2021/06/10 02:10:09;;;;;;;11.98;10.77;;;18.50;84.40;;;;;;5054328;28;20064;-76
2021/06/10 02:12:36;;;;;;;12.63;10.60;;;18.50;84.40;;;;;;5054275;28;20071;-77
2021/06/10 02:15:06;;;;;;;13.93;12.10;;;18.50;84.30;;;;;;5054245;28;20455;-76
2021/06/10 02:17:33;;;;;;;16.42;12.23;;;18.50;84.20;;;;;;5054281;28;20112;-76
2021/06/10 02:19:58;;;;;;;14.90;11.75;;;18.50;84.20;;;;;;5054161;28;20029;-77
2021/06/10 02:22:26;;;;;;;17.55;13.27;;;18.60;84.20;;;;;;5054021;28;20017;-76
2021/06/10 02:24:52;;;;;;;14.25;12.32;;;18.60;84.20;;;;;;5054153;28;20333;-76
2021/06/10 02:27:18;;;;;;;16.95;12.52;;;18.60;84.20;;;;;;5054102;28;20032;-77
2021/06/10 02:29:44;;;;;;;17.25;11.93;;;18.60;84.20;;;;;;5054129;28;20029;-77
2021/06/10 02:32:11;;;;;;;14.23;12.82;;;18.70;84.20;;;;;;5052772;28;20382;-76
2021/06/10 02:34:37;;;;;;;39.08;21.92;;;18.70;84.00;;;;;;5052516;28;20047;-76
2021/06/10 02:37:06;;;;;;;17.42;13.77;;;18.70;83.90;;;;;;5053793;28;20020;-76
2021/06/10 02:39:37;;;;;;;18.40;13.90;;;18.80;83.90;;;;;;5053782;28;20021;-76
2021/06/10 02:42:05;;;;;;;18.08;14.23;;;18.80;83.80;;;;;;5053659;28;20029;-76
2021/06/10 02:44:31;;;;;;;19.85;14.95;;;18.90;83.80;;;;;;5053568;28;20025;-76
2021/06/10 02:47:02;;;;;;;16.23;14.38;;;18.90;83.70;;;;;;5053653;28;20025;-76
2021/06/10 02:49:28;;;;;;;25.05;16.00;;;19.00;83.50;;;;;;5053722;28;20059;-77
2021/06/10 02:51:54;;;;;;;20.95;14.55;;;19.00;83.50;;;;;;5053799;28;20138;-77
2021/06/10 02:54:21;;;;;;;23.13;15.18;;;19.00;83.30;;;;;;5053559;28;20463;-77
2021/06/10 02:56:47;;;;;;;21.40;14.63;;;19.10;83.20;;;;;;5053515;28;20016;-77
2021/06/10 02:59:16;;;;;;;24.15;17.88;;;19.20;83.20;;;;;;5053027;28;20017;-76
2021/06/10 03:01:45;;;;;;;20.05;14.27;;;19.20;83.00;;;;;;5053519;28;20716;-76
2021/06/10 03:04:15;;;;;;;17.17;13.95;;;19.30;82.90;;;;;;5053237;28;20051;-77
2021/06/10 03:06:41;;;;;;;15.13;13.25;;;19.40;82.70;;;;;;5053288;28;20025;-77
2021/06/10 03:09:08;;;;;;;18.67;13.48;;;19.40;82.40;;;;;;5053205;28;20029;-77
2021/06/10 03:11:38;;;;;;;25.83;14.98;;;19.60;82.30;;;;;;5053158;28;20025;-77
2021/06/10 03:14:05;;;;;;;18.08;14.43;;;19.60;82.00;;;;;;5053123;28;20021;-77
2021/06/10 03:16:31;;;;;;;16.48;13.77;;;19.70;81.70;;;;;;5053181;28;20044;-78
2021/06/10 03:18:59;;;;;;;17.58;14.02;;;19.80;81.50;;;;;;5052963;28;20459;-78
2021/06/10 03:21:26;;;;;;;16.98;13.68;;;19.80;81.40;;;;;;5053000;28;20087;-78
2021/06/10 03:23:52;;;;;;;18.13;14.65;;;19.90;81.20;;;;;;5051809;28;20025;-78
2021/06/10 03:26:20;;;;;;;16.00;14.18;;;19.90;81.00;;;;;;5052563;28;20024;-78
2021/06/10 03:28:46;;;;;;;18.63;14.00;;;20.00;80.80;;;;;;5053144;28;20092;-78
2021/06/10 03:31:12;;;;;;;18.77;14.32;;;20.10;80.60;;;;;;5052699;28;20025;-78
2021/06/10 03:33:38;;;;;;;15.95;13.48;;;20.20;80.40;;;;;;5052560;28;20522;-78
2021/06/10 03:36:05;;;;;;;17.02;13.40;;;20.30;80.10;;;;;;5052735;28;20029;-77
2021/06/10 03:38:32;;;;;;;16.90;12.85;;;20.40;79.80;;;;;;5052653;28;20531;-77
2021/06/10 03:40:58;;;;;;;17.80;13.20;;;20.40;79.40;;;;;;5052078;28;20052;-77
2021/06/10 03:43:25;;;;;;;22.88;16.45;;;20.50;79.10;;;;;;5052333;28;20056;-78
2021/06/10 03:45:52;;;;;;;49.35;35.03;;;20.50;78.70;;;;;;5050975;28;20060;-78
2021/06/10 03:48:18;;;;;;;17.13;13.60;;;20.60;78.60;;;;;;5051126;28;20133;-78
2021/06/10 03:50:44;;;;;;;18.98;14.05;;;20.60;78.40;;;;;;5050731;28;20053;-78
2021/06/10 03:53:10;;;;;;;18.35;14.18;;;20.60;78.30;;;;;;5052310;28;20025;-78
2021/06/10 03:55:36;;;;;;;21.20;13.75;;;20.70;78.20;;;;;;5052460;28;20043;-78
2021/06/10 03:58:03;;;;;;;16.27;13.48;;;20.70;78.00;;;;;;5052366;28;20028;-77
2021/06/10 04:00:28;;;;;;;17.90;14.35;;;20.80;77.90;;;;;;5052133;28;20025;-78
2021/06/10 04:02:56;;;;;;;16.50;13.73;;;20.90;77.70;;;;;;5052377;28;20044;-77
2021/06/10 04:05:25;;;;;;;16.08;13.02;;;21.00;77.60;;;;;;5050248;28;20021;-77
2021/06/10 04:07:55;;;;;;;18.95;14.77;;;21.10;77.30;;;;;;5050901;28;20752;-78
2021/06/10 04:10:21;;;;;;;15.68;13.40;;;21.20;77.00;;;;;;5051667;28;20028;-78
2021/06/10 04:12:46;;;;;;;16.83;13.25;;;21.30;76.70;;;;;;5050797;28;20028;-77
2021/06/10 04:15:13;;;;;;;16.17;13.63;;;21.40;76.40;;;;;;5051236;28;20144;-77
2021/06/10 04:17:38;;;;;;;15.30;13.13;;;21.50;76.10;;;;;;5051925;28;20772;-77
2021/06/10 04:20:05;;;;;;;24.70;16.33;;;21.60;76.00;;;;;;5051918;28;20031;-78
2021/06/10 04:22:31;;;;;;;15.82;13.00;;;21.70;75.70;;;;;;5051879;28;20021;-77
2021/06/10 04:24:57;;;;;;;16.13;13.15;;;21.90;75.30;;;;;;5051419;28;20104;-77
2021/06/10 04:27:23;;;;;;;15.75;12.45;;;22.00;74.80;;;;;;5051445;28;20104;-77
2021/06/10 04:29:48;;;;;;;15.65;11.90;;;22.20;75.10;;;;;;5051335;28;20032;-77
2021/06/10 04:32:14;;;;;;;17.80;12.73;;;22.50;74.40;;;;;;5051454;28;20060;-78
2021/06/10 04:34:40;;;;;;;15.40;12.40;;;22.90;73.50;;;;;;5052444;28;20031;-80
2021/06/10 04:37:05;;;;;;;13.63;11.98;;;23.30;72.40;;;;;;5051660;28;20021;-77
2021/06/10 04:39:31;;;;;;;16.98;12.77;;;23.50;71.40;;;;;;5051858;28;20025;-77
2021/06/10 04:41:57;;;;;;;15.50;12.35;;;23.80;70.60;;;;;;5050285;28;20456;-78
2021/06/10 04:44:22;;;;;;;16.15;12.40;;;24.10;69.70;;;;;;5051361;28;20036;-78
2021/06/10 04:46:48;;;;;;;16.00;12.65;;;24.40;68.90;;;;;;5050913;28;20029;-78
2021/06/10 04:49:14;;;;;;;15.10;12.35;;;24.90;68.70;;;;;;5051327;28;20553;-76
2021/06/10 04:51:40;;;;;;;15.35;11.20;;;25.80;68.20;;;;;;5051360;28;20028;-77
2021/06/10 04:54:06;;;;;;;19.48;15.30;;;27.40;67.10;;;;;;5050553;28;20029;-79
2021/06/10 04:56:31;;;;;;;25.65;17.70;;;29.40;64.20;;;;;;5051870;28;20080;-78
2021/06/10 04:58:57;;;;;;;18.35;16.40;;;31.40;60.60;;;;;;5050229;28;20055;-78
2021/06/10 05:01:23;;;;;;;19.30;16.42;;;33.40;57.10;;;;;;5051414;28;20460;-78
2021/06/10 05:03:49;;;;;;;17.80;13.50;;;35.00;53.30;;;;;;5051588;28;20017;-78
2021/06/10 05:06:15;;;;;;;19.27;15.48;;;35.50;49.80;;;;;;5050540;28;20035;-78
2021/06/10 05:08:41;;;;;;;18.77;13.95;;;35.40;48.30;;;;;;5050776;28;20112;-77
2021/06/10 05:11:06;;;;;;;10.50;9.48;;;35.60;48.00;;;;;;5050996;28;20057;-77
2021/06/10 05:13:32;;;;;;;13.85;11.70;;;36.60;47.40;;;;;;5049697;28;20029;-77
2021/06/10 05:15:58;;;;;;;16.25;11.63;;;37.30;45.90;;;;;;5050754;28;20029;-77
2021/06/10 05:18:24;;;;;;;12.70;10.25;;;37.40;44.60;;;;;;5050671;28;20021;-78
2021/06/10 05:20:50;;;;;;;11.90;10.65;;;37.30;44.00;;;;;;5051030;28;20383;-78
2021/06/10 05:23:16;;;;;;;23.58;11.13;;;36.80;43.70;;;;;;5051813;28;20025;-77
2021/06/10 05:25:42;;;;;;;22.17;19.27;;;36.30;43.80;;;;;;5054714;28;20021;-77
2021/06/10 05:28:08;;;;;;;15.60;11.75;;;35.70;44.00;;;;;;5054531;28;20531;-76
2021/06/10 05:30:34;;;;;;;15.60;11.90;;;35.10;44.70;;;;;;5054704;28;20104;-75
2021/06/10 05:32:59;;;;;;;14.23;11.50;;;34.50;45.30;;;;;;5052858;28;20060;-76
2021/06/10 05:35:25;;;;;;;17.70;13.05;;;33.80;46.00;;;;;;5053468;28;20025;-77
2021/06/10 05:37:51;;;;;;;18.55;16.50;;;33.30;46.60;;;;;;5054260;28;20021;-76
2021/06/10 05:40:17;;;;;;;19.65;12.63;;;32.70;47.20;;;;;;5054269;28;20017;-76
2021/06/10 05:42:43;;;;;;;20.77;17.10;;;32.10;47.90;;;;;;5054142;28;20101;-77
2021/06/10 05:45:09;;;;;;;18.35;14.38;;;31.50;48.90;;;;;;5053508;28;20033;-77
2021/06/10 05:47:35;;;;;;;21.40;15.10;;;31.00;49.60;;;;;;5054178;28;20025;-77
2021/06/10 05:50:02;;;;;;;36.95;12.77;;;30.40;50.20;;;;;;5053889;28;20076;-77
2021/06/10 05:52:28;;;;;;;16.85;11.93;;;30.00;51.00;;;;;;5053605;28;20029;-76
2021/06/10 05:54:53;;;;;;;15.15;12.10;;;29.50;51.60;;;;;;5054253;28;20368;-76
2021/06/10 05:57:19;;;;;;;15.13;12.40;;;29.20;52.40;;;;;;5052253;28;20075;-76
2021/06/10 05:59:47;;;;;;;20.58;12.98;;;28.80;53.20;;;;;;5053876;28;20021;-76
2021/06/10 06:02:14;;;;;;;16.00;13.35;;;28.50;54.00;;;;;;5054195;28;20025;-77
2021/06/10 06:04:41;;;;;;;17.25;14.95;;;28.10;54.60;;;;;;5052754;28;20037;-76
2021/06/10 06:07:07;;;;;;;19.85;13.82;;;27.90;55.10;;;;;;5054094;28;20112;-77
2021/06/10 06:09:35;;;;;;;14.70;12.10;;;27.70;55.60;;;;;;5053725;28;20112;-76
2021/06/10 06:12:01;;;;;;;23.27;14.93;;;27.50;56.00;;;;;;5053281;28;20021;-76
2021/06/10 06:14:31;;;;;;;18.52;14.00;;;27.30;56.50;;;;;;5053571;28;20032;-76
2021/06/10 06:16:57;;;;;;;20.52;15.75;;;27.20;57.10;;;;;;5053467;28;20013;-76
2021/06/10 06:19:23;;;;;;;17.13;13.32;;;27.10;57.40;;;;;;5053230;28;20101;-78
2021/06/10 06:21:49;;;;;;;17.45;13.60;;;27.00;57.80;;;;;;5052400;28;20109;-77
2021/06/10 06:24:15;;;;;;;42.10;32.92;;;26.90;58.10;;;;;;5053508;28;20463;-78
2021/06/10 06:26:42;;;;;;;24.15;19.25;;;26.80;58.30;;;;;;5052796;28;20033;-77
2021/06/10 06:29:08;;;;;;;18.95;15.70;;;26.80;58.60;;;;;;5053364;28;20044;-78
2021/06/10 06:31:34;;;;;;;19.00;16.30;;;26.70;58.70;;;;;;5052299;28;20063;-77
2021/06/10 06:34:00;;;;;;;15.70;14.10;;;26.70;58.90;;;;;;5053000;28;20048;-78
2021/06/10 06:36:26;;;;;;;25.45;19.67;;;26.70;59.00;;;;;;5053960;28;20051;-75
2021/06/10 06:38:52;;;;;;;20.42;17.67;;;26.80;59.20;;;;;;5053539;28;20031;-76
2021/06/10 06:41:18;;;;;;;27.02;20.17;;;26.80;59.20;;;;;;5052167;28;20180;-76
2021/06/10 06:43:44;;;;;;;23.67;17.63;;;26.90;59.20;;;;;;5053117;28;20029;-76
2021/06/10 06:46:10;;;;;;;28.42;19.60;;;27.10;59.20;;;;;;5052550;28;20025;-77
2021/06/10 06:48:38;;;;;;;16.95;15.15;;;27.20;59.20;;;;;;5053459;28;20029;-76
2021/06/10 06:51:05;;;;;;;14.23;12.73;;;27.40;58.90;;;;;;5053572;28;20556;-76
2021/06/10 06:53:32;;;;;;;22.08;16.98;;;27.60;58.50;;;;;;5051961;28;20029;-75
2021/06/10 06:55:59;;;;;;;21.90;14.20;;;27.70;58.30;;;;;;5052770;28;20021;-76
2021/06/10 06:58:25;;;;;;;17.65;13.30;;;27.90;58.00;;;;;;5052806;28;20071;-75
2021/06/10 07:00:52;;;;;;;20.35;15.57;;;28.10;57.70;;;;;;5052784;28;20017;-75
2021/06/10 07:03:21;;;;;;;15.75;12.00;;;28.40;57.50;;;;;;5052608;28;20025;-75
2021/06/10 07:05:47;;;;;;;15.13;13.32;;;28.80;57.30;;;;;;5052306;28;20036;-75
2021/06/10 07:08:13;;;;;;;15.85;12.88;;;29.50;56.80;;;;;;5051186;28;20021;-76
2021/06/10 07:10:40;;;;;;;15.38;12.90;;;30.60;56.10;;;;;;5052114;28;20111;-76
2021/06/10 07:13:06;;;;;;;13.68;12.32;;;31.80;54.50;;;;;;5052519;28;20029;-75
2021/06/10 07:15:32;;;;;;;16.35;12.43;;;32.90;53.00;;;;;;5052229;28;20475;-75
2021/06/10 07:17:58;;;;;;;17.08;11.80;;;34.00;51.20;;;;;;5052546;28;20032;-75
2021/06/10 07:20:24;;;;;;;14.85;10.00;;;35.00;49.50;;;;;;5050875;28;20024;-77
2021/06/10 07:22:50;;;;;;;13.82;10.82;;;36.00;47.80;;;;;;5052351;28;20017;-75
2021/06/10 07:25:16;;;;;;;11.15;9.90;;;36.90;46.30;;;;;;5052477;28;20531;-76
2021/06/10 07:27:43;;;;;;;9.40;8.52;;;37.60;44.70;;;;;;5052520;28;20029;-76
2021/06/10 07:30:09;;;;;;;12.13;10.23;;;38.20;43.50;;;;;;5052134;28;20676;-75
2021/06/10 07:32:35;;;;;;;10.13;8.98;;;38.70;42.70;;;;;;5052271;28;20100;-75
2021/06/10 07:35:01;;;;;;;12.60;7.55;;;39.20;42.00;;;;;;5051900;28;20100;-75
2021/06/10 07:37:27;;;;;;;9.43;8.55;;;39.60;41.20;;;;;;5051820;28;20055;-77
2021/06/10 07:39:53;;;;;;;9.02;8.13;;;39.90;40.60;;;;;;5051617;28;20024;-75
2021/06/10 07:42:19;;;;;;;12.52;6.82;;;40.20;40.40;;;;;;5051623;28;20419;-75
2021/06/10 07:44:45;;;;;;;10.20;7.55;;;40.40;39.90;;;;;;5051717;28;20427;-75
2021/06/10 07:47:10;;;;;;;12.50;7.82;;;40.60;39.70;;;;;;5051185;28;20025;-74
2021/06/10 07:49:36;;;;;;;9.80;7.32;;;40.60;39.40;;;;;;5051324;28;20052;-74
2021/06/10 07:52:03;;;;;;;10.95;7.90;;;40.70;39.30;;;;;;5050230;28;20033;-74
2021/06/10 07:54:28;;;;;;;9.02;7.43;;;40.70;39.00;;;;;;5051887;28;20112;-74
2021/06/10 07:56:54;;;;;;;12.75;8.38;;;40.70;38.90;;;;;;5050582;28;20104;-75
2021/06/10 07:59:26;;;;;;;7.55;6.85;;;40.70;38.80;;;;;;5051512;28;20095;-74
2021/06/10 08:01:55;;;;;;;8.30;7.35;;;40.50;38.60;;;;;;5051572;28;20432;-75
2021/06/10 08:04:21;;;;;;;7.75;6.40;;;40.10;38.50;;;;;;5051451;28;20025;-75
2021/06/10 08:06:47;;;;;;;6.90;6.25;;;39.70;38.60;;;;;;5051643;28;20375;-75
2021/06/10 08:09:13;;;;;;;10.40;9.48;;;39.40;38.60;;;;;;5050349;28;20033;-75
2021/06/10 08:11:44;;;;;;;7.82;7.05;;;39.00;38.90;;;;;;5051371;28;20036;-75
2021/06/10 08:14:10;;;;;;;6.63;5.85;;;38.70;39.30;;;;;;5050565;28;20021;-75
2021/06/10 08:16:36;;;;;;;10.32;5.88;;;38.40;39.50;;;;;;5051406;28;20036;-75
2021/06/10 08:19:02;;;;;;;7.53;5.60;;;38.20;39.50;;;;;;5051420;28;20096;-75
2021/06/10 08:21:28;;;;;;;7.82;6.22;;;38.00;39.60;;;;;;5051315;28;20029;-76
2021/06/10 08:23:54;;;;;;;8.52;6.07;;;37.70;39.70;;;;;;5051529;28;20067;-75
2021/06/10 08:26:20;;;;;;;7.15;6.47;;;37.40;40.10;;;;;;5051429;28;20044;-77
2021/06/10 08:28:46;;;;;;;8.23;7.43;;;37.10;40.40;;;;;;5051200;28;20025;-76
2021/06/10 08:31:12;;;;;;;10.63;6.60;;;36.60;40.60;;;;;;5051659;28;20460;-76
2021/06/10 08:33:38;;;;;;;7.88;5.82;;;36.20;41.40;;;;;;5050927;28;20053;-76
2021/06/10 08:36:06;;;;;;;7.75;5.47;;;36.00;41.90;;;;;;5050934;28;20083;-76
2021/06/10 08:38:33;;;;;;;7.25;5.28;;;35.80;41.90;;;;;;5050881;28;20039;-76
2021/06/10 08:41:03;;;;;;;8.55;5.75;;;35.70;41.90;;;;;;5050871;28;20382;-76
2021/06/10 08:43:29;;;;;;;7.88;5.55;;;35.50;42.00;;;;;;5050856;28;20021;-75
2021/06/10 08:46:03;;;;;;;6.00;5.40;;;35.10;42.30;;;;;;5051206;28;20029;-75
2021/06/10 08:48:33;;;;;;;8.02;5.55;;;34.90;42.70;;;;;;5050963;28;20111;-75
2021/06/10 08:50:59;;;;;;;6.00;5.40;;;34.80;42.30;;;;;;5051020;28;20085;-76
2021/06/10 08:53:25;;;;;;;8.48;5.57;;;34.70;42.30;;;;;;5050525;28;20060;-75
2021/06/10 08:55:55;;;;;;;7.72;5.65;;;34.60;43.00;;;;;;5050409;28;20033;-75
2021/06/10 08:58:24;;;;;;;8.30;5.28;;;34.60;43.30;;;;;;5052436;28;20930;-76
2021/06/10 09:00:50;;;;;;;5.35;4.25;;;34.50;43.00;;;;;;5054524;28;20036;-74
2021/06/10 09:03:24;;;;;;;5.97;3.33;;;34.50;42.50;;;;;;5054832;28;20098;-75
2021/06/10 09:06:00;;;;;;;4.75;4.03;;;34.40;41.70;;;;;;5054739;28;20032;-75
2021/06/10 09:08:26;;;;;;;5.00;4.60;;;34.20;41.30;;;;;;5045670;28;20099;-76
2021/06/10 09:11:18;;;;;;;5.32;4.55;;;34.10;41.80;;;;;;5074923;28;20045;-76
2021/06/10 09:13:50;;;;;;;4.22;3.83;;;33.90;42.10;;;;;;5046252;28;20033;-75
2021/06/10 09:16:39;;;;;;;6.35;4.28;;;33.90;41.90;;;;;;5040672;28;20029;-74
2021/06/10 09:19:09;;;;;;;5.43;4.40;;;33.80;42.40;;;;;;5042430;28;20067;-76
2021/06/10 09:21:36;;;;;;;5.50;5.00;;;33.80;42.30;;;;;;5042630;28;20033;-75
2021/06/10 09:24:40;;;;;;;8.57;5.28;;;33.70;42.60;;;;;;5035607;28;20057;-75
2021/06/10 09:27:15;;;;;;;4.70;4.25;;;33.70;42.80;;;;;;5033079;28;20062;-75
2021/06/10 09:29:44;;;;;;;8.45;3.92;;;33.60;42.20;;;;;;5033271;28;20480;-75
2021/06/10 09:32:14;;;;;;;7.10;3.65;;;33.60;41.90;;;;;;5033129;28;20451;-75
2021/06/10 09:34:52;;;;;;;6.72;5.68;;;33.40;41.40;;;;;;5034341;28;20024;-75
2021/06/10 09:37:35;;;;;;;15.20;8.90;;;33.30;41.70;;;;;;5033392;28;20025;-75
2021/06/10 09:40:07;;;;;;;10.95;7.32;;;33.30;42.30;;;;;;5032589;28;20035;-75
2021/06/10 09:42:38;;;;;;;8.13;6.25;;;33.20;41.90;;;;;;5033608;28;20064;-77
2021/06/10 09:45:10;;;;;;;6.70;3.60;;;33.20;42.00;;;;;;5033728;28;20099;-74
2021/06/10 09:47:41;;;;;;;5.80;4.28;;;33.20;42.00;;;;;;5035727;28;20492;-74
2021/06/10 09:50:18;;;;;;;11.48;5.28;;;33.00;41.80;;;;;;5033097;28;20117;-74
2021/06/10 09:52:51;;;;;;;10.38;6.00;;;32.80;42.20;;;;;;5051523;28;20745;-74
2021/06/10 09:55:35;;;;;;;8.35;7.55;;;32.60;43.30;;;;;;5053259;28;20025;-73
2021/06/10 09:58:13;;;;;;;10.98;7.53;;;32.30;44.60;;;;;;5051652;28;20017;-75
2021/06/10 10:00:48;;;;;;;11.65;9.40;;;31.90;45.60;;;;;;5053034;28;20453;-73
2021/06/10 10:03:24;;;;;;;9.15;7.05;;;31.60;46.30;;;;;;5053547;28;20028;-75
2021/06/10 10:06:05;;;;;;;9.20;8.32;;;31.30;47.00;;;;;;5052533;28;20022;-74
2021/06/10 10:08:33;;;;;;;13.25;7.97;;;31.10;47.60;;;;;;5051821;28;20063;-73
2021/06/10 10:11:01;;;;;;;8.43;7.70;;;30.90;48.10;;;;;;5053009;28;20451;-73
2021/06/10 10:13:28;;;;;;;9.88;7.90;;;30.80;48.50;;;;;;5053305;28;20021;-74
2021/06/10 10:15:58;;;;;;;16.77;7.80;;;30.70;48.60;;;;;;5050583;28;20029;-74
2021/06/10 10:18:24;;;;;;;10.35;7.72;;;30.60;48.90;;;;;;5052510;28;20376;-74
2021/06/10 10:20:50;;;;;;;8.38;6.82;;;30.50;49.20;;;;;;5052421;28;20021;-74
2021/06/10 10:23:16;;;;;;;9.90;8.27;;;30.40;49.20;;;;;;5052788;28;20025;-74
2021/06/10 10:25:42;;;;;;;8.25;6.97;;;30.40;49.40;;;;;;5052549;28;20064;-74
2021/06/10 10:28:13;;;;;;;7.40;6.65;;;30.40;49.70;;;;;;5052150;28;20052;-73
2021/06/10 10:30:44;;;;;;;10.27;8.65;;;30.50;49.80;;;;;;5052632;28;20021;-74
2021/06/10 10:33:14;;;;;;;12.50;7.97;;;30.50;50.00;;;;;;5052482;28;20108;-74
2021/06/10 10:35:57;;;;;;;9.95;7.40;;;30.50;49.80;;;;;;5052075;28;20021;-74
2021/06/10 10:38:38;;;;;;;8.40;7.40;;;30.50;49.70;;;;;;5052242;28;20029;-73
2021/06/10 10:41:11;;;;;;;14.38;8.55;;;30.50;49.90;;;;;;5052538;28;20075;-74
2021/06/10 10:43:38;;;;;;;7.25;6.55;;;30.50;50.00;;;;;;5052195;28;20071;-74
2021/06/10 10:46:14;;;;;;;9.40;7.32;;;30.60;50.00;;;;;;5050527;28;20082;-75
2021/06/10 10:48:44;;;;;;;10.10;8.23;;;30.60;50.10;;;;;;5051898;28;20075;-74
2021/06/10 10:51:35;;;;;;;10.88;7.35;;;30.60;50.30;;;;;;5051892;28;20032;-73
2021/06/10 10:54:25;;;;;;;8.32;7.07;;;30.60;50.20;;;;;;5052458;28;20086;-73
2021/06/10 10:56:50;;;;;;;7.32;6.60;;;30.60;50.20;;;;;;5052024;28;20021;-74
2021/06/10 10:59:18;;;;;;;10.77;7.00;;;30.60;50.30;;;;;;5051962;28;20052;-73
2021/06/10 11:02:06;;;;;;;11.05;6.70;;;30.50;50.20;;;;;;5051968;28;20028;-73
2021/06/10 11:04:57;;;;;;;14.98;6.40;;;30.50;50.40;;;;;;5052182;28;20082;-80
2021/06/10 11:07:40;;;;;;;16.00;7.70;;;30.60;50.60;;;;;;5052174;28;20029;-80
2021/06/10 11:10:15;;;;;;;21.55;7.68;;;30.70;50.70;;;;;;5052163;28;20709;-81
2021/06/10 11:12:43;;;;;;;9.20;7.43;;;30.70;50.40;;;;;;5052748;28;20531;-80
2021/06/10 11:15:38;;;;;;;12.45;8.02;;;30.70;50.30;;;;;;5052353;28;20032;-81
2021/06/10 11:18:07;;;;;;;7.60;7.00;;;30.60;50.20;;;;;;5033853;28;20114;-80
2021/06/10 11:20:36;;;;;;;9.10;7.45;;;30.50;50.40;;;;;;5052863;28;20025;-80
2021/06/10 11:23:25;;;;;;;9.43;8.40;;;30.30;50.80;;;;;;5052353;28;20044;-80
2021/06/10 11:25:52;;;;;;;15.77;8.15;;;30.20;50.90;;;;;;5052399;28;20089;-80
2021/06/10 11:28:20;;;;;;;9.90;7.60;;;30.20;50.80;;;;;;5052402;28;20436;-78
2021/06/10 11:30:48;;;;;;;11.77;7.28;;;30.10;51.00;;;;;;5051167;28;20155;-80
2021/06/10 11:33:17;;;;;;;12.95;9.65;;;30.00;50.90;;;;;;5052468;28;20032;-80
2021/06/10 11:36:16;;;;;;;17.75;8.02;;;30.00;51.20;;;;;;5052305;28;20039;-79
2021/06/10 11:38:48;;;;;;;15.73;7.45;;;29.90;51.30;;;;;;5029745;28;20037;-79
2021/06/10 11:41:14;;;;;;;;;;;29.80;51.40;;;;;;5052530;28;20071;-79
2021/06/10 11:43:42;;;;;;;9.70;7.38;;;29.70;51.30;;;;;;5052400;28;19916;-79
2021/06/10 11:46:13;;;;;;;11.90;7.22;;;29.60;51.30;;;;;;5052081;28;20123;-81
2021/06/10 11:48:49;;;;;;;10.73;7.20;;;29.50;51.70;;;;;;5050422;28;20056;-74
2021/06/10 11:51:21;;;;;;;8.10;6.35;;;29.20;51.80;;;;;;5050331;28;20033;-72
2021/06/10 11:53:48;;;;;;;9.70;7.13;;;29.00;52.10;;;;;;5050075;28;20383;-73
2021/06/10 11:56:15;;;;;;;10.80;7.10;;;28.80;52.20;;;;;;5051247;28;20384;-74
2021/06/10 11:58:41;;;;;;;9.93;7.50;;;28.60;52.70;;;;;;5051732;28;20013;-74
2021/06/10 12:01:14;;;;;;;9.77;6.45;;;28.50;53.00;;;;;;5051516;28;20525;-74
2021/06/10 12:03:40;;;;;;;10.77;6.18;;;28.40;53.20;;;;;;5051775;28;20025;-73
2021/06/10 12:06:11;;;;;;;11.25;6.05;;;28.30;53.20;;;;;;5051791;28;20021;-74
2021/06/10 12:08:38;;;;;;;12.93;6.80;;;28.20;53.30;;;;;;5051392;28;20104;-74
2021/06/10 12:11:16;;;;;;;8.55;6.55;;;28.10;53.60;;;;;;5051385;28;20025;-74
2021/06/10 12:13:43;;;;;;;12.60;7.45;;;28.10;54.20;;;;;;5051362;28;20109;-73
2021/06/10 12:16:13;;;;;;;12.80;7.30;;;28.00;54.60;;;;;;5051381;28;20116;-73
2021/06/10 12:18:42;;;;;;;9.98;6.88;;;28.00;55.00;;;;;;5050150;28;20021;-73
2021/06/10 12:21:16;;;;;;;7.82;6.95;;;28.00;56.30;;;;;;5053077;28;20099;-81
2021/06/10 12:23:47;;;;;;;7.75;6.60;;;28.00;56.20;;;;;;5052274;28;20025;-80
2021/06/10 12:26:16;;;;;;;8.10;7.32;;;28.10;56.40;;;;;;5051628;28;20035;-81
2021/06/10 12:28:46;;;;;;;11.25;6.70;;;28.10;56.60;;;;;;5053362;28;20024;-80
2021/06/10 12:31:15;;;;;;;12.48;6.85;;;28.20;56.90;;;;;;5051323;28;20070;-81
2021/06/10 12:33:44;;;;;;;10.80;6.95;;;28.30;56.80;;;;;;5054656;28;20056;-81
2021/06/10 12:36:34;;;;;;;7.00;6.30;;;28.40;56.20;;;;;;5062787;28;20048;-79
2021/06/10 12:39:09;;;;;;;9.65;7.07;;;28.50;55.50;;;;;;5056046;28;20029;-80
2021/06/10 12:41:36;;;;;;;12.93;6.70;;;28.70;55.30;;;;;;5065543;28;20084;-80
2021/06/10 12:44:12;;;;;;;12.38;7.07;;;28.80;54.80;;;;;;5061507;28;20028;-80